Time;durP1;ratioP1;P1;durP2;ratioP2;P2;SDS_P1;SDS_P2;PMS_P1;PMS_P2;Temp;Humidity;BMP_temperature;BMP_pressure;BME280_temperature;BME280_humidity;BME280_pressure;Samples;Min_cycle;Max_cycle;Signal;HPM_P1;HPM_P2
2023/03/08 00:01:33;;;;;;;;;20.00;14.25;;;;;9.93;100.00;99658.16;5053021;28;45604;-80
2023/03/08 00:03:59;;;;;;;;;10.50;8.75;;;;;9.94;100.00;99653.75;5053970;28;46683;-79
2023/03/08 00:06:25;;;;;;;;;18.75;13.00;;;;;9.93;100.00;99649.38;5051734;27;45545;-79
2023/03/08 00:08:58;;;;;;;;;11.75;10.25;;;;;9.92;100.00;99643.22;5047677;28;45505;-80
2023/03/08 00:11:24;;;;;;;;;15.00;11.75;;;;;9.93;100.00;99636.19;5045420;28;46966;-79
2023/03/08 00:13:49;;;;;;;;;18.25;10.50;;;;;9.90;100.00;99638.81;5052969;28;45306;-79
2023/03/08 00:16:15;;;;;;;;;15.75;14.00;;;;;9.87;100.00;99634.47;5053335;27;45302;-79
2023/03/08 00:18:40;;;;;;;;;17.50;12.75;;;;;9.85;100.00;99630.06;5051308;28;45275;-79
2023/03/08 00:21:12;;;;;;;;;15.50;13.00;;;;;9.85;100.00;99623.03;5049604;27;46635;-79
2023/03/08 00:23:37;;;;;;;;;14.50;12.25;;;;;9.85;100.00;99628.28;5051179;27;45839;-79
2023/03/08 00:26:03;;;;;;;;;12.50;8.50;;;;;9.84;100.00;99617.75;5051997;28;45429;-79
2023/03/08 00:28:29;;;;;;;;;11.25;11.25;;;;;9.83;100.00;99614.25;5178115;22;45555;-80
2023/03/08 00:31:03;;;;;;;;;15.50;14.50;;;;;9.82;100.00;99603.72;5071942;27;47336;-80
2023/03/08 00:33:29;;;;;;;;;14.00;12.00;;;;;9.81;100.00;99596.72;5073305;27;45452;-80
2023/03/08 00:35:55;;;;;;;;;12.25;11.75;;;;;9.79;100.00;99591.44;5076604;27;45215;-81
2023/03/08 00:38:21;;;;;;;;;16.00;15.00;;;;;9.80;100.00;99587.94;5076057;27;45539;-80
2023/03/08 00:40:46;;;;;;;;;15.50;12.50;;;;;9.80;100.00;99585.28;5075159;27;47185;-78
2023/03/08 00:43:11;;;;;;;;;15.25;11.75;;;;;9.79;100.00;99570.34;5072339;27;62355;-81
2023/03/08 00:45:37;;;;;;;;;13.25;12.00;;;;;9.76;100.00;99556.31;5083018;27;61485;-80
2023/03/08 00:48:02;;;;;;;;;19.00;11.50;;;;;9.78;100.00;99560.69;5071439;27;64615;-80
2023/03/08 00:50:27;;;;;;;;;18.00;11.50;;;;;9.76;100.00;99535.25;5084013;27;47249;-81
2023/03/08 00:52:53;;;;;;;;;13.50;11.75;;;;;9.75;100.00;99528.19;5071649;27;65336;-80
2023/03/08 00:55:18;;;;;;;;;16.50;9.25;;;;;9.75;100.00;99525.56;5082465;27;54503;-80
2023/03/08 00:57:43;;;;;;;;;14.00;10.75;;;;;9.73;100.00;99522.94;5078563;27;59248;-80
2023/03/08 01:00:11;;;;;;;;;12.00;9.25;;;;;9.70;100.00;99505.41;5078174;27;46497;-80
2023/03/08 01:02:39;;;;;;;;;12.50;9.75;;;;;9.71;100.00;99504.50;5072631;27;45604;-82
2023/03/08 01:05:06;;;;;;;;;14.50;11.25;;;;;9.67;100.00;99499.25;5073670;27;45425;-80
2023/03/08 01:07:31;;;;;;;;;13.00;10.50;;;;;9.63;100.00;99477.31;5074751;27;45496;-81
2023/03/08 01:09:56;;;;;;;;;17.75;11.25;;;;;9.64;100.00;99463.28;5072505;27;69214;-81
2023/03/08 01:12:24;;;;;;;;;8.75;8.75;;;;;9.64;100.00;99458.00;5068058;27;64212;-80
2023/03/08 01:14:50;;;;;;;;;10.25;8.50;;;;;9.65;100.00;99462.38;5075495;27;45483;-80
2023/03/08 01:17:15;;;;;;;;;18.50;12.00;;;;;9.63;100.00;99481.72;5074962;27;45311;-80
2023/03/08 01:19:40;;;;;;;;;14.75;8.50;;;;;9.64;100.00;99457.09;5075238;27;69776;-80
2023/03/08 01:22:06;;;;;;;;;16.50;11.75;;;;;9.62;100.00;99449.22;5074861;27;45510;-80
2023/03/08 01:24:31;;;;;;;;;13.75;12.50;;;;;9.61;100.00;99439.56;5073731;27;65212;-81
2023/03/08 01:26:59;;;;;;;;;17.25;13.25;;;;;9.62;100.00;99433.41;5076513;27;61795;-80
2023/03/08 01:29:25;;;;;;;;;17.00;12.25;;;;;9.63;100.00;99423.72;5076103;27;48072;-81
2023/03/08 01:31:50;;;;;;;;;18.00;8.50;;;;;9.64;100.00;99422.84;5075849;27;45543;-81
2023/03/08 01:34:16;;;;;;;;;19.00;12.00;;;;;9.64;100.00;99417.56;5079273;27;50108;-81
2023/03/08 01:36:41;;;;;;;;;14.75;10.25;;;;;9.65;100.00;99400.91;5078867;27;45642;-80
2023/03/08 01:39:06;;;;;;;;;16.00;11.00;;;;;9.60;100.00;99400.94;5069945;27;69596;-80
2023/03/08 01:41:32;;;;;;;;;13.50;11.00;;;;;9.61;100.00;99389.50;5071212;27;69453;-81
2023/03/08 01:43:57;;;;;;;;;8.00;7.25;;;;;9.59;100.00;99387.78;5068415;27;45591;-81
2023/03/08 01:46:32;;;;;;;;;10.00;10.00;;;;;9.59;100.00;99386.00;5074879;27;56509;-80
2023/03/08 01:49:14;;;;;;;;;18.00;14.00;;;;;9.59;100.00;99393.03;5075329;27;46751;-80
2023/03/08 01:52:01;;;;;;;;;11.00;9.00;;;;;9.55;100.00;99373.75;5071698;28;45474;-80
2023/03/08 01:54:32;;;;;;;;;9.50;8.00;;;;;9.55;100.00;99378.16;5070161;28;45368;-80
2023/03/08 01:57:01;;;;;;;;;12.00;10.00;;;;;9.51;100.00;99363.25;5074596;27;45532;-81
2023/03/08 01:59:27;;;;;;;;;18.00;13.00;;;;;9.50;100.00;99374.66;5070501;27;46828;-80
2023/03/08 02:01:52;;;;;;;;;12.25;9.75;;;;;9.53;100.00;99372.88;5054919;28;45470;-81
2023/03/08 02:04:18;;;;;;;;;11.25;11.00;;;;;9.54;100.00;99368.50;5077773;27;57027;-80
2023/03/08 02:06:44;;;;;;;;;12.25;12.25;;;;;9.56;100.00;99351.78;5075749;27;63627;-81
2023/03/08 02:09:09;;;;;;;;;11.00;9.50;;;;;9.56;100.00;99353.53;5087188;27;46816;-81
2023/03/08 02:11:37;;;;;;;;;11.75;11.75;;;;;9.56;100.00;99337.72;5077822;27;45506;-80
2023/03/08 02:14:03;;;;;;;;;12.00;10.50;;;;;9.55;100.00;99331.59;5082014;27;45425;-80
2023/03/08 02:16:28;;;;;;;;;14.25;10.00;;;;;9.54;100.00;99331.59;5072199;27;63652;-81
2023/03/08 02:18:59;;;;;;;;;9.00;6.75;;;;;9.55;100.00;99326.31;5083366;27;45716;-81
2023/03/08 02:21:26;;;;;;;;;10.25;9.25;;;;;9.55;100.00;99322.81;5078701;27;45321;-81
2023/03/08 02:23:51;;;;;;;;;11.25;9.00;;;;;9.54;100.00;99314.03;5079929;27;46560;-80
2023/03/08 02:26:17;;;;;;;;;12.50;9.50;;;;;9.53;100.00;99311.38;5079235;27;45414;-80
2023/03/08 02:28:42;;;;;;;;;13.50;11.00;;;;;9.52;100.00;99285.94;5078311;27;46237;-80
2023/03/08 02:31:09;;;;;;;;;13.25;7.50;;;;;9.55;100.00;99284.16;5073405;27;66397;-80
2023/03/08 02:33:34;;;;;;;;;11.75;10.25;;;;;9.57;100.00;99278.88;5077508;27;45234;-81
2023/03/08 02:36:01;;;;;;;;;11.75;8.50;;;;;9.56;100.00;99266.59;5077046;27;64335;-81
2023/03/08 02:38:26;;;;;;;;;12.00;6.00;;;;;9.54;100.00;99261.34;5077941;27;47367;-81
2023/03/08 02:40:52;;;;;;;;;11.50;8.00;;;;;9.53;100.00;99258.69;5080083;27;63530;-79
2023/03/08 02:43:18;;;;;;;;;5.00;5.00;;;;;9.48;100.00;99255.22;5079287;27;45316;-81
2023/03/08 02:45:43;;;;;;;;;6.25;3.00;;;;;9.48;100.00;99255.22;5078095;27;45746;-81
2023/03/08 02:48:08;;;;;;;;;15.25;8.75;;;;;9.46;100.00;99255.25;5081977;27;47320;-81
2023/03/08 02:50:35;;;;;;;;;10.50;7.00;;;;;9.47;100.00;99242.94;5069149;27;45458;-81
2023/03/08 02:53:01;;;;;;;;;8.25;6.75;;;;;9.45;100.00;99235.94;5073021;27;45268;-80
2023/03/08 02:55:26;;;;;;;;;7.25;6.75;;;;;9.45;100.00;99214.00;5071472;27;45577;-80
2023/03/08 02:57:52;;;;;;;;;8.50;8.50;;;;;9.44;100.00;99204.34;5058274;28;47389;-81
2023/03/08 03:00:17;;;;;;;;;12.00;7.00;;;;;9.46;100.00;99184.13;5076861;27;69184;-81
2023/03/08 03:02:43;;;;;;;;;9.00;7.00;;;;;9.43;100.00;99179.78;5074772;27;45328;-81
2023/03/08 03:05:12;;;;;;;;;7.75;7.25;;;;;9.43;100.00;99171.88;5077334;27;61355;-81
2023/03/08 03:07:40;;;;;;;;;7.00;6.00;;;;;9.43;100.00;99161.34;5072944;27;47504;-81
2023/03/08 03:10:06;;;;;;;;;9.25;9.25;;;;;9.43;100.00;99145.53;5081139;27;45356;-81
2023/03/08 03:12:32;;;;;;;;;9.25;8.50;;;;;9.45;100.00;99156.03;5077713;27;45457;-81
2023/03/08 03:14:57;;;;;;;;;6.25;6.25;;;;;9.46;100.00;99144.59;5076628;27;58230;-82
2023/03/08 03:17:22;;;;;;;;;14.25;9.00;;;;;9.47;100.00;99135.81;5073782;28;67857;-79
2023/03/08 03:19:48;;;;;;;;;12.50;7.50;;;;;9.50;100.00;99132.28;5076318;27;69163;-81
2023/03/08 03:22:14;;;;;;;;;9.00;7.25;;;;;9.50;100.00;99121.75;5074798;27;45387;-82
2023/03/08 03:24:39;;;;;;;;;8.75;6.25;;;;;9.53;100.00;99122.56;5077539;27;45172;-81
2023/03/08 03:27:05;;;;;;;;;12.25;8.00;;;;;9.53;100.00;99096.22;5076604;27;47391;-80
2023/03/08 03:29:30;;;;;;;;;9.00;7.00;;;;;9.56;100.00;99095.31;5075173;27;66221;-81
2023/03/08 03:31:55;;;;;;;;;11.25;7.00;;;;;9.56;100.00;99071.59;5076204;27;64100;-82
2023/03/08 03:34:21;;;;;;;;;7.75;7.75;;;;;9.54;100.00;99062.88;5073295;27;63656;-80
2023/03/08 03:36:46;;;;;;;;;8.75;8.00;;;;;9.56;100.00;99058.44;5072107;27;69666;-80
2023/03/08 03:39:11;;;;;;;;;9.00;8.75;;;;;9.55;100.00;99060.19;5074044;27;45557;-81
2023/03/08 03:41:37;;;;;;;;;8.00;7.00;;;;;9.53;100.00;99032.09;5076951;27;45429;-81
2023/03/08 03:44:02;;;;;;;;;2.25;1.00;;;;;9.53;100.00;99030.34;5076166;27;65028;-81
2023/03/08 03:46:27;;;;;;;;;15.75;7.75;;;;;9.51;100.00;99021.59;5074127;27;45647;-82
2023/03/08 03:48:53;;;;;;;;;7.75;7.75;;;;;9.51;100.00;99010.19;5072973;28;70010;-82
2023/03/08 03:51:20;;;;;;;;;11.25;6.00;;;;;9.51;100.00;99007.56;5076430;27;64499;-81
2023/03/08 03:53:46;;;;;;;;;5.50;3.75;;;;;9.51;100.00;99002.28;5077082;27;45306;-81
2023/03/08 03:56:24;;;;;;;;;8.00;8.00;;;;;9.50;100.00;99016.38;5075201;27;46449;-82
2023/03/08 03:58:50;;;;;;;;;4.00;4.00;;;;;9.51;100.00;98989.13;5074838;28;47078;-80
2023/03/08 04:01:20;;;;;;;;;6.75;4.00;;;;;9.51;100.00;98997.88;5076050;27;45448;-82
2023/03/08 04:03:46;;;;;;;;;5.50;4.00;;;;;9.49;100.00;98989.16;5074182;27;45632;-81
2023/03/08 04:06:15;;;;;;;;;11.25;6.00;;;;;9.51;100.00;98986.50;5075799;27;47712;-81
2023/03/08 04:08:41;;;;;;;;;8.25;6.75;;;;;9.50;100.00;98980.34;5084758;27;46046;-81
2023/03/08 04:11:19;;;;;;;;;3.00;2.75;;;;;9.49;100.00;98983.00;5076052;27;45335;-80
2023/03/08 04:13:45;;;;;;;;;5.50;5.00;;;;;9.44;100.00;98969.91;5065290;28;46945;-81
2023/03/08 04:16:13;;;;;;;;;5.00;4.50;;;;;9.47;100.00;98961.94;5075241;27;46970;-82
2023/03/08 04:18:38;;;;;;;;;8.25;6.50;;;;;9.47;100.00;98967.22;5075408;27;45417;-81
2023/03/08 04:21:04;;;;;;;;;8.50;4.50;;;;;9.47;100.00;98954.03;5076585;27;46497;-81
2023/03/08 04:23:29;;;;;;;;;7.00;4.00;;;;;9.49;100.00;98944.38;5073887;27;45538;-81
2023/03/08 04:25:54;;;;;;;;;6.75;6.00;;;;;9.51;100.00;98933.78;5075883;27;47241;-81
2023/03/08 04:28:20;;;;;;;;;2.75;2.75;;;;;9.50;100.00;98921.53;5079428;27;62698;-81
2023/03/08 04:30:45;;;;;;;;;2.50;2.50;;;;;9.50;100.00;98911.84;5075175;27;63163;-81
2023/03/08 04:33:10;;;;;;;;;6.00;3.50;;;;;9.49;100.00;98919.78;5098547;27;45449;-81
2023/03/08 04:35:36;;;;;;;;;6.00;3.25;;;;;9.48;100.00;98916.28;5074794;27;72097;-81
2023/03/08 04:38:01;;;;;;;;;6.00;3.75;;;;;9.47;100.00;98914.53;5070269;27;61469;-81
2023/03/08 04:40:26;;;;;;;;;6.25;4.00;;;;;9.47;100.00;98921.56;5069317;27;62625;-81
2023/03/08 04:42:51;;;;;;;;;2.00;2.00;;;;;9.48;100.00;98905.75;5069759;27;61748;-81
2023/03/08 04:45:17;;;;;;;;;3.25;2.00;;;;;9.51;100.00;98887.25;5076406;27;46922;-81
2023/03/08 04:47:42;;;;;;;;;5.00;3.00;;;;;9.54;100.00;98923.22;5075907;27;45633;-81
2023/03/08 04:50:08;;;;;;;;;2.00;2.00;;;;;9.54;100.00;98884.56;5075150;27;66632;-81
2023/03/08 04:52:33;;;;;;;;;6.50;2.00;;;;;9.56;100.00;98864.31;5072207;27;45584;-81
2023/03/08 04:54:59;;;;;;;;;5.75;3.75;;;;;9.55;100.00;98922.31;5074421;27;67396;-80
2023/03/08 04:57:24;;;;;;;;;3.00;2.00;;;;;9.56;100.00;98910.88;5072559;27;67969;-80
2023/03/08 04:59:50;;;;;;;;;1.75;1.75;;;;;9.57;100.00;98836.22;5074243;27;45462;-81
2023/03/08 05:02:15;;;;;;;;;3.75;2.00;;;;;9.56;100.00;98890.69;5075497;27;45682;-80
2023/03/08 05:04:41;;;;;;;;;2.00;2.00;;;;;9.58;100.00;98883.59;5075763;27;47389;-80
2023/03/08 05:07:06;;;;;;;;;1.67;1.67;;;;;9.59;100.00;98866.06;5095932;27;46110;-81
2023/03/08 05:09:31;;;;;;;;;2.00;2.00;;;;;9.60;100.00;98823.00;5057930;28;63419;-80
2023/03/08 05:11:58;;;;;;;;;1.75;1.00;;;;;9.61;100.00;98862.50;5073478;28;62202;-80
2023/03/08 05:14:23;;;;;;;;;2.75;1.50;;;;;9.63;100.00;98860.69;5075505;27;46746;-80
2023/03/08 05:16:49;;;;;;;;;3.50;2.25;;;;;9.64;100.00;98815.03;5070477;27;45599;-81
2023/03/08 05:19:14;;;;;;;;;1.00;1.00;;;;;9.66;100.00;98836.94;5072054;27;45194;-80
2023/03/08 05:21:39;;;;;;;;;1.00;1.00;;;;;9.67;100.00;98858.88;5073480;28;45378;-80
2023/03/08 05:24:05;;;;;;;;;3.00;1.75;;;;;9.65;100.00;98853.63;5074663;27;47145;-81
2023/03/08 05:26:30;;;;;;;;;1.33;1.00;;;;;9.66;100.00;98831.66;5073034;27;45420;-80
2023/03/08 05:28:56;;;;;;;;;2.75;1.00;;;;;9.67;100.00;98808.81;5074677;27;45512;-80
2023/03/08 05:31:21;;;;;;;;;2.00;2.00;;;;;9.67;100.00;98843.06;5073808;27;45496;-81
2023/03/08 05:33:49;;;;;;;;;3.25;2.50;;;;;9.64;100.00;98846.63;5065883;27;46460;-79
2023/03/08 05:36:16;;;;;;;;;1.00;1.00;;;;;9.66;100.00;98828.16;5073792;27;45410;-81
2023/03/08 05:38:41;;;;;;;;;3.00;1.00;;;;;9.69;100.00;98813.16;5077632;27;45486;-81
2023/03/08 05:41:10;;;;;;;;;2.25;2.25;;;;;9.73;100.00;98782.34;5075991;27;45519;-80
2023/03/08 05:43:35;;;;;;;;;1.67;1.00;;;;;9.75;100.00;98811.28;5078722;27;47402;-81
2023/03/08 05:46:03;;;;;;;;;6.50;1.75;;;;;9.76;100.00;98823.59;5067439;27;70539;-80
2023/03/08 05:48:29;;;;;;;;;3.67;1.00;;;;;9.79;100.00;98824.41;5061246;28;46743;-81
2023/03/08 05:50:55;;;;;;;;;1.00;1.00;;;;;9.81;100.00;98817.34;5073033;27;45512;-81
2023/03/08 05:53:21;;;;;;;;;2.75;1.00;;;;;9.85;100.00;98802.31;5079959;27;47394;-88
2023/03/08 05:55:47;;;;;;;;;2.25;1.00;;;;;9.90;100.00;98825.06;5093026;27;45661;-85
2023/03/08 05:58:13;;;;;;;;;2.67;1.00;;;;;9.92;100.00;98801.34;5084102;27;45471;-86
2023/03/08 06:00:38;;;;;;;;;1.00;1.00;;;;;9.94;100.00;98810.06;5084831;27;45489;-84
2023/03/08 06:03:04;;;;;;;;;1.00;1.00;;;;;10.00;100.00;98798.53;5082186;27;70403;-83
2023/03/08 06:05:30;;;;;;;;;0.67;0.00;;;;;10.01;100.00;98808.19;5077265;27;45584;-85
2023/03/08 06:07:56;;;;;;;;;1.00;1.00;;;;;10.03;100.00;98816.94;5080797;27;45526;-82
2023/03/08 06:10:22;;;;;;;;;1.00;1.00;;;;;10.08;100.00;98801.91;5079827;27;45577;-86
2023/03/08 06:12:47;;;;;;;;;2.00;1.00;;;;;10.11;100.00;98817.66;5083394;27;47293;-80
2023/03/08 06:15:13;;;;;;;;;0.67;0.67;;;;;10.14;100.00;98833.44;5070022;27;64923;-79
2023/03/08 06:17:39;;;;;;;;;1.00;1.00;;;;;10.18;100.00;98824.56;5067405;27;45619;-80
2023/03/08 06:20:05;;;;;;;;;1.33;0.00;;;;;10.22;100.00;98807.75;5082700;27;45401;-81
2023/03/08 06:22:31;;;;;;;;;2.00;1.00;;;;;10.25;100.00;98835.88;5082473;27;46977;-82
2023/03/08 06:24:56;;;;;;;;;2.00;2.00;;;;;10.23;100.00;98807.78;5089044;27;46660;-80
2023/03/08 06:27:21;;;;;;;;;0.00;0.00;;;;;10.27;100.00;98845.50;5086409;27;45497;-81
2023/03/08 06:29:47;;;;;;;;;0.00;0.00;;;;;10.30;100.00;98840.16;5066065;27;60809;-82
2023/03/08 06:32:13;;;;;;;;;0.67;0.00;;;;;10.31;100.00;98839.25;5081490;27;46404;-81
2023/03/08 06:34:38;;;;;;;;;3.00;0.67;;;;;10.34;100.00;98833.94;5072573;27;45943;-82
2023/03/08 06:37:04;;;;;;;;;1.00;1.00;;;;;10.40;100.00;98839.09;5070864;27;45913;-81
2023/03/08 06:39:30;;;;;;;;;1.00;1.00;;;;;10.45;100.00;98836.34;5065213;27;45441;-83
2023/03/08 06:41:56;;;;;;;;;1.00;1.00;;;;;10.46;100.00;98831.03;5048846;27;46161;-81
2023/03/08 06:44:22;;;;;;;;;0.00;0.00;;;;;10.52;100.00;98826.53;5083576;27;45640;-82
2023/03/08 06:46:47;;;;;;;;;3.00;1.00;;;;;10.57;100.00;98835.22;5077890;27;45465;-79
2023/03/08 06:49:12;;;;;;;;;1.00;1.00;;;;;10.62;100.00;98830.72;5075840;27;62759;-80
2023/03/08 06:51:37;;;;;;;;;1.00;1.00;;;;;10.65;100.00;98836.81;5072551;27;70493;-81
2023/03/08 06:54:03;;;;;;;;;4.33;1.00;;;;;10.70;100.00;98821.72;5072540;27;68157;-79
2023/03/08 06:56:29;;;;;;;;;0.00;0.00;;;;;10.73;100.00;98820.81;5075140;27;46618;-79
2023/03/08 06:58:54;;;;;;;;;0.00;0.00;;;;;10.77;100.00;98803.13;5058193;28;45421;-81
2023/03/08 07:01:20;;;;;;;;;0.00;0.00;;;;;10.85;100.00;98798.53;5077592;27;66179;-80
2023/03/08 07:03:47;;;;;;;;;0.00;0.00;;;;;10.89;100.00;98790.50;5076390;27;45392;-80
2023/03/08 07:06:13;;;;;;;;;0.00;0.00;;;;;10.95;100.00;98795.66;5076653;27;45592;-80
2023/03/08 07:08:38;;;;;;;;;1.00;1.00;;;;;10.98;100.00;98792.94;5067677;27;45718;-81
2023/03/08 07:11:05;;;;;;;;;0.00;0.00;;;;;11.07;100.00;98807.69;5075696;27;46710;-80
2023/03/08 07:13:31;;;;;;;;;2.00;0.67;;;;;11.12;100.00;98789.97;5082629;27;45721;-82
2023/03/08 07:15:57;;;;;;;;;0.33;0.33;;;;;11.18;100.00;98786.31;5078438;27;45339;-82
2023/03/08 07:18:23;;;;;;;;;0.00;0.00;;;;;11.25;100.00;98795.84;5075054;27;61794;-80
2023/03/08 07:20:55;;;;;;;;;1.00;0.00;;;;;11.30;100.00;98782.50;5074760;27;47529;-80
2023/03/08 07:23:20;;;;;;;;;1.00;1.00;;;;;11.32;100.00;98784.19;5067849;27;45951;-77
2023/03/08 07:25:46;;;;;;;;;0.00;0.00;;;;;11.33;100.00;98793.84;5073591;27;45658;-77
2023/03/08 07:28:11;;;;;;;;;0.00;0.00;;;;;11.34;100.00;98800.88;5072464;27;45563;-80
2023/03/08 07:30:36;;;;;;;;;0.00;0.00;;;;;11.33;100.00;98815.00;5080428;27;46826;-78
2023/03/08 07:33:02;;;;;;;;;1.00;1.00;;;;;11.35;100.00;98809.69;5077721;27;68433;-80
2023/03/08 07:35:27;;;;;;;;;0.33;0.33;;;;;11.35;100.00;98815.84;5076561;27;45654;-79
2023/03/08 07:37:52;;;;;;;;;2.00;0.00;;;;;11.36;100.00;98816.72;5073662;27;45465;-78
2023/03/08 07:40:18;;;;;;;;;0.00;0.00;;;;;11.37;100.00;98821.94;5071455;27;69921;-79
2023/03/08 07:42:43;;;;;;;;;0.00;0.00;;;;;11.42;100.00;98820.06;5072903;27;45458;-77
2023/03/08 07:45:10;;;;;;;;;2.00;0.00;;;;;11.47;100.00;98822.59;5070573;27;65828;-79
2023/03/08 07:47:36;;;;;;;;;2.00;0.67;;;;;11.53;100.00;98828.59;5073894;27;45436;-79
2023/03/08 07:50:01;;;;;;;;;0.00;0.00;;;;;11.63;100.00;98836.28;5076597;27;45746;-78
2023/03/08 07:52:30;;;;;;;;;0.67;0.00;;;;;11.72;100.00;98841.34;5070154;27;58077;-77
2023/03/08 07:54:55;;;;;;;;;0.00;0.00;;;;;11.81;100.00;98822.59;5072651;27;45417;-77
2023/03/08 07:57:21;;;;;;;;;1.00;1.00;;;;;11.90;100.00;98819.75;5073267;27;45446;-78
2023/03/08 07:59:46;;;;;;;;;1.00;0.00;;;;;12.00;100.00;98815.06;5074702;27;45398;-77
2023/03/08 08:02:13;;;;;;;;;0.00;0.00;;;;;12.09;100.00;98814.84;5074332;27;45463;-77
2023/03/08 08:04:38;;;;;;;;;0.00;0.00;;;;;12.17;100.00;98830.47;5081697;27;45863;-78
2023/03/08 08:07:04;;;;;;;;;0.00;0.00;;;;;12.22;100.00;98834.72;5072592;27;45468;-78
2023/03/08 08:09:30;;;;;;;;;0.00;0.00;;;;;12.28;100.00;98847.78;5083438;27;46488;-78
2023/03/08 08:11:55;;;;;;;;;2.00;0.00;;;;;12.35;100.00;98839.69;5077958;27;52670;-80
2023/03/08 08:14:21;;;;;;;;;1.00;0.00;;;;;12.38;100.00;98835.16;5074292;27;46046;-78
2023/03/08 08:16:46;;;;;;;;;5.00;0.00;;;;;12.44;100.00;98840.28;5068290;27;63160;-78
2023/03/08 08:19:13;;;;;;;;;0.00;0.00;;;;;12.54;100.00;98825.00;5068432;27;46548;-78
2023/03/08 08:21:39;;;;;;;;;0.00;0.00;;;;;12.64;100.00;98838.84;5077886;27;45194;-81
2023/03/08 08:24:04;;;;;;;;;1.67;0.00;;;;;12.76;100.00;98835.84;5080402;27;45589;-79
2023/03/08 08:26:30;;;;;;;;;2.00;0.00;;;;;12.88;100.00;98846.06;5079193;27;45693;-80
2023/03/08 08:28:55;;;;;;;;;1.33;0.00;;;;;12.96;100.00;98841.41;5074386;27;63357;-78
2023/03/08 08:31:23;;;;;;;;;1.00;0.00;;;;;13.06;100.00;98829.59;5074282;27;45497;-78
2023/03/08 08:33:48;;;;;;;;;2.00;0.00;;;;;13.11;100.00;98835.63;5078594;27;45507;-78
2023/03/08 08:36:17;;;;;;;;;1.00;0.00;;;;;13.15;100.00;98849.63;5083391;27;61007;-79
2023/03/08 08:38:42;;;;;;;;;1.00;1.00;;;;;13.19;100.00;98856.59;5074034;27;46923;-79
2023/03/08 08:41:08;;;;;;;;;1.33;0.00;;;;;13.21;100.00;98848.56;5080985;27;45901;-78
2023/03/08 08:43:35;;;;;;;;;0.00;0.00;;;;;13.25;100.00;98844.94;5082477;27;45301;-77
2023/03/08 08:46:01;;;;;;;;;1.00;0.00;;;;;13.27;100.00;98859.03;5073044;27;45460;-78
2023/03/08 08:48:27;;;;;;;;;0.00;0.00;;;;;13.27;100.00;98867.84;5071230;27;46816;-78
2023/03/08 08:50:53;;;;;;;;;0.00;0.00;;;;;13.30;100.00;98862.44;5076087;27;45352;-78
2023/03/08 08:53:19;;;;;;;;;0.00;0.00;;;;;13.30;100.00;98890.72;5071298;27;45405;-77
2023/03/08 08:55:45;;;;;;;;;1.00;0.00;;;;;13.27;100.00;98883.75;5078302;27;45687;-76
2023/03/08 08:58:10;;;;;;;;;0.00;0.00;;;;;13.24;100.00;98888.28;5074412;27;47286;-77
2023/03/08 09:00:36;;;;;;;;;1.67;0.67;;;;;13.23;100.00;98886.53;5073946;27;46003;-79
2023/03/08 09:03:02;;;;;;;;;1.00;0.00;;;;;13.22;100.00;98880.38;5076378;27;65416;-79
2023/03/08 09:05:28;;;;;;;;;1.00;0.00;;;;;13.23;100.00;98870.66;5077156;27;45654;-79
2023/03/08 09:07:54;;;;;;;;;0.33;0.33;;;;;13.26;100.00;98882.03;5073844;27;45566;-81
2023/03/08 09:10:20;;;;;;;;;0.00;0.00;;;;;13.29;100.00;98871.31;5071938;27;45591;-81
2023/03/08 09:12:45;;;;;;;;;0.00;0.00;;;;;13.39;100.00;98877.19;5078264;27;51709;-81
2023/03/08 09:15:11;;;;;;;;;0.00;0.00;;;;;13.49;100.00;98872.47;5073055;27;58080;-81
2023/03/08 09:17:37;;;;;;;;;0.33;0.33;;;;;13.58;100.00;98869.50;5095765;27;46417;-83
2023/03/08 09:20:05;;;;;;;;;1.00;1.00;;;;;13.71;100.00;98867.34;5077855;27;45523;-77
2023/03/08 09:22:31;;;;;;;;;1.00;1.00;;;;;13.79;100.00;98882.06;5078132;27;45430;-80
2023/03/08 09:24:56;;;;;;;;;2.00;1.00;;;;;13.85;100.00;98884.53;5080338;27;45461;-80
2023/03/08 09:27:21;;;;;;;;;1.00;1.00;;;;;13.89;100.00;98878.19;5078650;27;70427;-81
2023/03/08 09:29:46;;;;;;;;;0.00;0.00;;;;;13.93;100.00;98888.69;5080566;27;58869;-81
2023/03/08 09:32:12;;;;;;;;;0.00;0.00;;;;;13.94;100.00;98880.69;5078320;27;59018;-81
2023/03/08 09:34:37;;;;;;;;;2.00;1.00;;;;;13.93;100.00;98888.69;5078784;27;66721;-81
2023/03/08 09:37:04;;;;;;;;;4.67;0.67;;;;;13.93;100.00;98875.44;5081924;27;45985;-82
2023/03/08 09:39:29;;;;;;;;;1.00;0.00;;;;;13.98;100.00;98879.66;5076608;27;45382;-81
2023/03/08 09:41:56;;;;;;;;;0.00;0.00;;;;;14.00;100.00;98885.78;5077703;27;57892;-79
2023/03/08 09:44:46;;;;;;;;;2.67;1.00;;;;;14.02;100.00;98891.06;5080587;27;45606;-80
2023/03/08 09:47:25;;;;;;;;;2.00;0.00;;;;;14.03;100.00;98884.81;5078155;27;45523;-81
2023/03/08 09:49:53;;;;;;;;;3.00;0.00;;;;;14.03;100.00;98879.50;5095697;27;45521;-79
2023/03/08 09:52:34;;;;;;;;;0.00;0.00;;;;;14.05;100.00;98890.94;5075590;27;45466;-80
2023/03/08 09:55:01;;;;;;;;;0.00;0.00;;;;;14.10;100.00;98910.22;5084761;27;45580;-81
2023/03/08 09:57:35;;;;;;;;;2.00;0.67;;;;;14.18;100.00;98910.84;5081235;27;45572;-81
2023/03/08 10:00:07;;;;;;;;;2.00;1.00;;;;;14.28;100.00;98906.09;5078051;27;45479;-80
2023/03/08 10:02:35;;;;;;;;;2.00;1.00;;;;;14.36;100.00;98893.38;5081306;27;45355;-80
2023/03/08 10:05:04;;;;;;;;;0.33;0.00;;;;;14.44;100.00;98901.09;5084770;27;45409;-80
2023/03/08 10:07:41;;;;;;;;;0.67;0.67;;;;;14.49;100.00;98897.38;5082844;27;45650;-80
2023/03/08 10:10:23;;;;;;;;;0.00;0.00;;;;;14.59;100.00;98903.22;5075580;27;45684;-79
2023/03/08 10:13:26;;;;;;;;;1.00;0.00;;;;;14.68;100.00;98911.72;5093857;27;45428;-83
2023/03/08 10:15:57;;;;;;;;;3.00;0.00;;;;;14.80;100.00;98912.19;5078019;27;45437;-79
2023/03/08 10:18:29;;;;;;;;;0.67;0.67;;;;;14.92;100.00;98922.38;5061291;28;47582;-79
2023/03/08 10:20:57;;;;;;;;;1.00;1.00;;;;;15.03;100.00;98914.00;5077173;27;46255;-80
2023/03/08 10:23:23;;;;;;;;;3.00;1.00;;;;;15.10;100.00;98905.72;5074782;27;46616;-79
2023/03/08 10:25:49;;;;;;;;;1.00;1.00;;;;;15.22;100.00;98914.16;5072280;27;45478;-80
2023/03/08 10:28:20;;;;;;;;;2.00;0.67;;;;;15.37;100.00;98903.78;5076853;27;46597;-81
2023/03/08 10:30:57;;;;;;;;;0.67;0.00;;;;;15.56;100.00;98901.28;5087276;27;45485;-79
2023/03/08 10:33:24;;;;;;;;;4.00;0.67;;;;;15.67;100.00;98898.22;5074989;27;45449;-79
2023/03/08 10:36:05;;;;;;;;;0.00;0.00;;;;;15.76;100.00;98904.94;5077591;27;45481;-83
2023/03/08 10:38:33;;;;;;;;;1.00;0.00;;;;;15.81;100.00;98914.47;5074057;27;45818;-79
2023/03/08 10:41:16;;;;;;;;;0.00;0.00;;;;;15.91;100.00;98917.63;5068763;27;45607;-80
2023/03/08 10:43:48;;;;;;;;;1.67;1.00;;;;;16.03;100.00;98927.75;5085120;27;45362;-79
2023/03/08 10:46:17;;;;;;;;;0.00;0.00;;;;;16.10;100.00;98913.25;5072387;27;45539;-80
2023/03/08 10:48:43;;;;;;;;;1.67;0.33;;;;;16.17;100.00;98914.72;5073513;27;47390;-78
2023/03/08 10:51:35;;;;;;;;;0.67;0.00;;;;;16.28;100.00;98916.94;5069619;27;46555;-77
2023/03/08 10:54:03;;;;;;;;;0.67;0.00;;;;;16.35;100.00;98917.53;5068471;27;66556;-77
2023/03/08 10:56:28;;;;;;;;;0.00;0.00;;;;;16.37;100.00;98916.53;5072613;27;45547;-78
2023/03/08 10:58:55;;;;;;;;;0.00;0.00;;;;;16.43;100.00;98920.72;5076102;27;45707;-78
2023/03/08 11:01:29;;;;;;;;;3.00;0.00;;;;;16.53;100.00;98930.06;5071996;27;45304;-77
2023/03/08 11:04:02;;;;;;;;;1.00;0.00;;;;;16.60;100.00;98923.53;5074105;27;45507;-77
2023/03/08 11:06:28;;;;;;;;;1.67;0.00;;;;;16.62;100.00;98932.34;5071431;27;45508;-78
2023/03/08 11:08:56;;;;;;;;;3.00;0.00;;;;;16.64;100.00;98922.47;5069328;27;46620;-81
2023/03/08 11:11:21;;;;;;;;;0.00;0.00;;;;;16.69;100.00;98924.94;5057668;28;45603;-77
2023/03/08 11:13:48;;;;;;;;;0.00;0.00;;;;;16.75;100.00;98930.00;5088408;27;45407;-77
2023/03/08 11:16:24;;;;;;;;;1.33;0.00;;;;;16.80;100.00;98924.47;5072016;27;45566;-81
2023/03/08 11:19:01;;;;;;;;;0.00;0.00;;;;;16.77;100.00;98918.31;5071714;27;46523;-78
2023/03/08 11:21:45;;;;;;;;;0.00;0.00;;;;;16.82;100.00;98919.94;5079690;27;46023;-77
2023/03/08 11:24:28;;;;;;;;;1.00;0.00;;;;;16.89;100.00;98934.72;5067712;28;45549;-78
2023/03/08 11:27:23;;;;;;;;;0.00;0.00;;;;;16.98;100.00;98918.28;5072514;27;45343;-80